Decoded Metar for KHSA (BAY ST LOUIS in MS, USA) (IATA:HSA) | Meteo·Mobile Aviation Weather
aviador You're here:

KHSA Decoded Metar

BAY ST LOUIS in MS, USA
Report Time2018-09-20 01:54:00
UTC Time2018-09-20 02:14:06
Flight Rules vfr VFR
WindCalm
Visibility9999 m
Phenomena:N/A
Clouds:N/A
Expected CloudBase > 400 ft AGL from Temp-Dew spread
CeilingNone
Temp25°C (ISA +10)
Dew Point24°C (94% RH)
QNH1015 hPa
Density Alt1,509 ft
Elevation23 ft
Report Wrong Elevation
Raw Report
KHSA 200154Z 00000KT 10SM SKC 25/24 A2996=

Extra information for KHSA:More info

Metar Taf Metar & Taf Last 4 Metars F.Rules Stats Wind Profile Meteogram Temp Stats Airport Information Weather charts Add Link Nearby VenuesMetar ALERT Operation Metar Decoded Social comments

AIRNAV info for KHSA